sensor_id;sensor_type;location;lat;lon;timestamp;temperature;humidity
61253;DHT22;47127;47.516;8.596;2023-02-17T00:02:22;8.70;99.40
61253;DHT22;47127;47.516;8.596;2023-02-17T00:04:48;8.80;99.30
61253;DHT22;47127;47.516;8.596;2023-02-17T00:07:13;8.80;99.30
61253;DHT22;47127;47.516;8.596;2023-02-17T00:09:39;8.70;99.00
61253;DHT22;47127;47.516;8.596;2023-02-17T00:12:04;8.70;99.10
61253;DHT22;47127;47.516;8.596;2023-02-17T00:14:30;8.70;99.10
61253;DHT22;47127;47.516;8.596;2023-02-17T00:16:55;8.70;99.00
61253;DHT22;47127;47.516;8.596;2023-02-17T00:19:21;8.70;98.80
61253;DHT22;47127;47.516;8.596;2023-02-17T00:24:16;8.70;98.90
61253;DHT22;47127;47.516;8.596;2023-02-17T00:26:42;8.70;98.90
61253;DHT22;47127;47.516;8.596;2023-02-17T00:29:08;8.70;98.60
61253;DHT22;47127;47.516;8.596;2023-02-17T00:31:33;8.70;98.70
61253;DHT22;47127;47.516;8.596;2023-02-17T00:33:59;8.70;98.80
61253;DHT22;47127;47.516;8.596;2023-02-17T00:36:25;8.70;98.60
61253;DHT22;47127;47.516;8.596;2023-02-17T00:38:52;8.70;98.60
61253;DHT22;47127;47.516;8.596;2023-02-17T00:41:19;8.60;98.60
61253;DHT22;47127;47.516;8.596;2023-02-17T00:43:45;8.60;98.50
61253;DHT22;47127;47.516;8.596;2023-02-17T00:46:11;8.70;98.20
61253;DHT22;47127;47.516;8.596;2023-02-17T00:48:36;8.70;98.20
61253;DHT22;47127;47.516;8.596;2023-02-17T00:51:02;8.70;98.20
61253;DHT22;47127;47.516;8.596;2023-02-17T00:53:28;8.70;98.50
61253;DHT22;47127;47.516;8.596;2023-02-17T00:55:53;8.60;98.60
61253;DHT22;47127;47.516;8.596;2023-02-17T00:58:19;8.50;98.80
61253;DHT22;47127;47.516;8.596;2023-02-17T01:00:44;8.40;98.90
61253;DHT22;47127;47.516;8.596;2023-02-17T01:03:10;8.30;99.00
61253;DHT22;47127;47.516;8.596;2023-02-17T01:05:43;8.20;99.20
61253;DHT22;47127;47.516;8.596;2023-02-17T01:08:10;8.20;99.30
61253;DHT22;47127;47.516;8.596;2023-02-17T01:10:37;8.20;99.40
61253;DHT22;47127;47.516;8.596;2023-02-17T01:13:03;8.10;99.50
61253;DHT22;47127;47.516;8.596;2023-02-17T01:15:29;8.20;99.40
61253;DHT22;47127;47.516;8.596;2023-02-17T01:17:54;8.20;99.50
61253;DHT22;47127;47.516;8.596;2023-02-17T01:20:20;8.20;99.50
61253;DHT22;47127;47.516;8.596;2023-02-17T01:22:45;8.20;99.80
61253;DHT22;47127;47.516;8.596;2023-02-17T01:25:11;8.20;99.70
61253;DHT22;47127;47.516;8.596;2023-02-17T01:27:36;8.20;99.70
61253;DHT22;47127;47.516;8.596;2023-02-17T01:30:03;8.20;99.60
61253;DHT22;47127;47.516;8.596;2023-02-17T01:32:29;8.20;99.70
61253;DHT22;47127;47.516;8.596;2023-02-17T01:34:54;8.20;99.80
61253;DHT22;47127;47.516;8.596;2023-02-17T01:37:20;8.20;99.80
61253;DHT22;47127;47.516;8.596;2023-02-17T01:39:46;8.20;99.80
61253;DHT22;47127;47.516;8.596;2023-02-17T01:42:18;8.20;99.90
61253;DHT22;47127;47.516;8.596;2023-02-17T01:47:57;8.20;99.70
61253;DHT22;47127;47.516;8.596;2023-02-17T01:50:27;8.30;99.60
61253;DHT22;47127;47.516;8.596;2023-02-17T01:52:55;8.30;99.60
61253;DHT22;47127;47.516;8.596;2023-02-17T01:55:23;8.40;99.80
61253;DHT22;47127;47.516;8.596;2023-02-17T01:57:53;8.30;99.90
61253;DHT22;47127;47.516;8.596;2023-02-17T02:00:21;8.30;99.70
61253;DHT22;47127;47.516;8.596;2023-02-17T02:02:48;8.40;99.60
61253;DHT22;47127;47.516;8.596;2023-02-17T02:05:17;8.40;99.60
61253;DHT22;47127;47.516;8.596;2023-02-17T02:07:43;8.50;99.30
61253;DHT22;47127;47.516;8.596;2023-02-17T02:10:12;8.50;99.50
61253;DHT22;47127;47.516;8.596;2023-02-17T02:12:40;8.50;99.40
61253;DHT22;47127;47.516;8.596;2023-02-17T02:17:46;8.60;99.40
61253;DHT22;47127;47.516;8.596;2023-02-17T02:20:31;8.70;99.10
61253;DHT22;47127;47.516;8.596;2023-02-17T02:34:54;9.10;98.40
61253;DHT22;47127;47.516;8.596;2023-02-17T02:37:28;9.10;98.10
61253;DHT22;47127;47.516;8.596;2023-02-17T02:39:59;9.10;98.30
61253;DHT22;47127;47.516;8.596;2023-02-17T02:42:26;9.10;98.10
61253;DHT22;47127;47.516;8.596;2023-02-17T02:44:52;9.20;98.10
61253;DHT22;47127;47.516;8.596;2023-02-17T02:47:49;9.20;98.00
61253;DHT22;47127;47.516;8.596;2023-02-17T02:50:38;9.30;97.90
61253;DHT22;47127;47.516;8.596;2023-02-17T03:01:37;9.40;97.30
61253;DHT22;47127;47.516;8.596;2023-02-17T03:04:18;9.40;97.20
61253;DHT22;47127;47.516;8.596;2023-02-17T03:07:02;9.40;97.40
61253;DHT22;47127;47.516;8.596;2023-02-17T03:09:30;9.40;97.30
61253;DHT22;47127;47.516;8.596;2023-02-17T03:11:57;9.40;97.20
61253;DHT22;47127;47.516;8.596;2023-02-17T03:14:23;9.40;97.00
61253;DHT22;47127;47.516;8.596;2023-02-17T03:16:50;9.40;97.50
61253;DHT22;47127;47.516;8.596;2023-02-17T03:19:17;9.30;97.50
61253;DHT22;47127;47.516;8.596;2023-02-17T03:21:58;9.20;97.70
61253;DHT22;47127;47.516;8.596;2023-02-17T03:24:25;9.20;97.70
61253;DHT22;47127;47.516;8.596;2023-02-17T03:26:51;9.10;97.60
61253;DHT22;47127;47.516;8.596;2023-02-17T03:29:16;9.10;97.60
61253;DHT22;47127;47.516;8.596;2023-02-17T03:31:42;9.20;97.70
61253;DHT22;47127;47.516;8.596;2023-02-17T03:34:07;9.30;97.60
61253;DHT22;47127;47.516;8.596;2023-02-17T03:36:33;9.30;97.40
61253;DHT22;47127;47.516;8.596;2023-02-17T03:38:59;9.30;97.30
61253;DHT22;47127;47.516;8.596;2023-02-17T03:41:24;9.30;97.40
61253;DHT22;47127;47.516;8.596;2023-02-17T03:43:50;9.20;97.40
61253;DHT22;47127;47.516;8.596;2023-02-17T03:46:16;9.30;97.20
61253;DHT22;47127;47.516;8.596;2023-02-17T03:48:42;9.40;97.00
61253;DHT22;47127;47.516;8.596;2023-02-17T03:51:20;9.30;97.30
61253;DHT22;47127;47.516;8.596;2023-02-17T03:53:46;9.30;97.50
61253;DHT22;47127;47.516;8.596;2023-02-17T03:56:13;9.30;97.30
61253;DHT22;47127;47.516;8.596;2023-02-17T03:58:39;9.30;97.50
61253;DHT22;47127;47.516;8.596;2023-02-17T04:01:05;9.30;97.30
61253;DHT22;47127;47.516;8.596;2023-02-17T04:03:32;9.40;97.20
61253;DHT22;47127;47.516;8.596;2023-02-17T04:05:58;9.40;97.10
61253;DHT22;47127;47.516;8.596;2023-02-17T04:08:23;9.50;96.40
61253;DHT22;47127;47.516;8.596;2023-02-17T04:10:53;9.60;96.60
61253;DHT22;47127;47.516;8.596;2023-02-17T04:13:19;9.60;96.80
61253;DHT22;47127;47.516;8.596;2023-02-17T04:15:45;9.60;96.80
61253;DHT22;47127;47.516;8.596;2023-02-17T04:18:11;9.60;96.80
61253;DHT22;47127;47.516;8.596;2023-02-17T04:20:37;9.60;96.80
61253;DHT22;47127;47.516;8.596;2023-02-17T04:23:02;9.60;96.80
61253;DHT22;47127;47.516;8.596;2023-02-17T04:25:28;9.60;96.90
61253;DHT22;47127;47.516;8.596;2023-02-17T04:27:53;9.70;96.90
61253;DHT22;47127;47.516;8.596;2023-02-17T04:30:19;9.70;96.50
61253;DHT22;47127;47.516;8.596;2023-02-17T04:32:44;9.70;96.60
61253;DHT22;47127;47.516;8.596;2023-02-17T04:35:10;9.70;96.40
61253;DHT22;47127;47.516;8.596;2023-02-17T04:37:35;9.70;96.00
61253;DHT22;47127;47.516;8.596;2023-02-17T04:40:01;9.70;96.40
61253;DHT22;47127;47.516;8.596;2023-02-17T04:42:26;9.70;96.40
61253;DHT22;47127;47.516;8.596;2023-02-17T04:44:52;9.70;96.10
61253;DHT22;47127;47.516;8.596;2023-02-17T04:47:17;9.60;96.30
61253;DHT22;47127;47.516;8.596;2023-02-17T04:49:43;9.60;95.90
61253;DHT22;47127;47.516;8.596;2023-02-17T04:52:08;9.60;95.90
61253;DHT22;47127;47.516;8.596;2023-02-17T04:54:34;9.60;96.20
61253;DHT22;47127;47.516;8.596;2023-02-17T04:56:59;9.70;95.80
61253;DHT22;47127;47.516;8.596;2023-02-17T04:59:25;9.80;95.80
61253;DHT22;47127;47.516;8.596;2023-02-17T05:01:50;9.80;95.50
61253;DHT22;47127;47.516;8.596;2023-02-17T05:04:16;9.80;95.50
61253;DHT22;47127;47.516;8.596;2023-02-17T05:06:41;9.90;95.50
61253;DHT22;47127;47.516;8.596;2023-02-17T05:09:07;9.90;95.30
61253;DHT22;47127;47.516;8.596;2023-02-17T05:11:32;9.90;95.60
61253;DHT22;47127;47.516;8.596;2023-02-17T05:13:58;9.80;95.80
61253;DHT22;47127;47.516;8.596;2023-02-17T05:16:23;9.70;95.90
61253;DHT22;47127;47.516;8.596;2023-02-17T05:18:49;9.70;95.80
61253;DHT22;47127;47.516;8.596;2023-02-17T05:21:14;9.70;95.70
61253;DHT22;47127;47.516;8.596;2023-02-17T05:23:40;9.70;96.20
61253;DHT22;47127;47.516;8.596;2023-02-17T05:26:09;9.70;96.30
61253;DHT22;47127;47.516;8.596;2023-02-17T05:28:36;9.60;96.30
61253;DHT22;47127;47.516;8.596;2023-02-17T05:31:02;9.60;96.50
61253;DHT22;47127;47.516;8.596;2023-02-17T05:33:28;9.60;96.90
61253;DHT22;47127;47.516;8.596;2023-02-17T05:35:54;9.60;97.10
61253;DHT22;47127;47.516;8.596;2023-02-17T05:38:20;9.60;97.30
61253;DHT22;47127;47.516;8.596;2023-02-17T05:40:45;9.60;97.40
61253;DHT22;47127;47.516;8.596;2023-02-17T05:43:11;9.60;97.50
61253;DHT22;47127;47.516;8.596;2023-02-17T05:45:36;9.60;97.60
61253;DHT22;47127;47.516;8.596;2023-02-17T05:48:02;9.60;96.60
61253;DHT22;47127;47.516;8.596;2023-02-17T05:50:28;9.70;96.60
61253;DHT22;47127;47.516;8.596;2023-02-17T05:52:53;9.80;96.10
61253;DHT22;47127;47.516;8.596;2023-02-17T05:55:19;9.80;95.80
61253;DHT22;47127;47.516;8.596;2023-02-17T05:57:44;9.80;95.10
61253;DHT22;47127;47.516;8.596;2023-02-17T06:00:10;9.90;94.80
61253;DHT22;47127;47.516;8.596;2023-02-17T06:02:36;9.80;95.10
61253;DHT22;47127;47.516;8.596;2023-02-17T06:05:01;9.80;94.90
61253;DHT22;47127;47.516;8.596;2023-02-17T06:07:27;9.80;96.30
61253;DHT22;47127;47.516;8.596;2023-02-17T06:09:52;9.80;95.80
61253;DHT22;47127;47.516;8.596;2023-02-17T06:12:18;9.80;95.10
61253;DHT22;47127;47.516;8.596;2023-02-17T06:14:43;9.80;94.50
61253;DHT22;47127;47.516;8.596;2023-02-17T06:17:09;9.80;94.40
61253;DHT22;47127;47.516;8.596;2023-02-17T06:19:35;9.80;94.80
61253;DHT22;47127;47.516;8.596;2023-02-17T06:22:00;9.90;94.20
61253;DHT22;47127;47.516;8.596;2023-02-17T06:24:25;9.90;94.50
61253;DHT22;47127;47.516;8.596;2023-02-17T06:26:51;9.90;94.10
61253;DHT22;47127;47.516;8.596;2023-02-17T06:29:16;9.90;93.80
61253;DHT22;47127;47.516;8.596;2023-02-17T06:31:42;9.90;94.50
61253;DHT22;47127;47.516;8.596;2023-02-17T06:34:07;9.90;94.50
61253;DHT22;47127;47.516;8.596;2023-02-17T06:36:33;10.00;94.50
61253;DHT22;47127;47.516;8.596;2023-02-17T06:38:59;10.00;93.90
61253;DHT22;47127;47.516;8.596;2023-02-17T06:41:24;10.00;93.90
61253;DHT22;47127;47.516;8.596;2023-02-17T06:43:50;9.90;94.00
61253;DHT22;47127;47.516;8.596;2023-02-17T06:46:15;10.00;93.60
61253;DHT22;47127;47.516;8.596;2023-02-17T06:48:41;10.00;93.50
61253;DHT22;47127;47.516;8.596;2023-02-17T06:51:06;9.90;93.60
61253;DHT22;47127;47.516;8.596;2023-02-17T06:53:32;9.90;93.90
61253;DHT22;47127;47.516;8.596;2023-02-17T06:55:57;9.80;94.10
61253;DHT22;47127;47.516;8.596;2023-02-17T06:58:23;9.80;94.30
61253;DHT22;47127;47.516;8.596;2023-02-17T07:00:48;9.80;94.00
61253;DHT22;47127;47.516;8.596;2023-02-17T07:03:14;9.90;93.20
61253;DHT22;47127;47.516;8.596;2023-02-17T07:05:39;10.00;93.30
61253;DHT22;47127;47.516;8.596;2023-02-17T07:08:05;10.00;93.40
61253;DHT22;47127;47.516;8.596;2023-02-17T07:10:31;10.10;93.10
61253;DHT22;47127;47.516;8.596;2023-02-17T07:12:57;10.10;92.80
61253;DHT22;47127;47.516;8.596;2023-02-17T07:15:22;10.00;93.10
61253;DHT22;47127;47.516;8.596;2023-02-17T07:17:48;10.00;92.80
61253;DHT22;47127;47.516;8.596;2023-02-17T07:20:13;10.10;92.90
61253;DHT22;47127;47.516;8.596;2023-02-17T07:22:39;10.10;93.20
61253;DHT22;47127;47.516;8.596;2023-02-17T07:25:05;10.10;93.20
61253;DHT22;47127;47.516;8.596;2023-02-17T07:27:31;10.10;93.30
61253;DHT22;47127;47.516;8.596;2023-02-17T07:29:58;10.10;93.00
61253;DHT22;47127;47.516;8.596;2023-02-17T07:32:24;10.10;93.10
61253;DHT22;47127;47.516;8.596;2023-02-17T07:34:49;10.10;92.80
61253;DHT22;47127;47.516;8.596;2023-02-17T07:37:15;10.20;92.80
61253;DHT22;47127;47.516;8.596;2023-02-17T07:39:41;10.20;92.90
61253;DHT22;47127;47.516;8.596;2023-02-17T07:42:07;10.20;93.10
61253;DHT22;47127;47.516;8.596;2023-02-17T07:44:34;10.20;93.40
61253;DHT22;47127;47.516;8.596;2023-02-17T07:46:59;10.20;93.30
61253;DHT22;47127;47.516;8.596;2023-02-17T07:49:25;10.40;92.90
61253;DHT22;47127;47.516;8.596;2023-02-17T07:51:50;10.40;92.60
61253;DHT22;47127;47.516;8.596;2023-02-17T07:54:16;10.40;92.60
61253;DHT22;47127;47.516;8.596;2023-02-17T07:56:43;10.30;93.00
61253;DHT22;47127;47.516;8.596;2023-02-17T07:59:10;10.30;92.60
61253;DHT22;47127;47.516;8.596;2023-02-17T08:01:35;10.30;92.40
61253;DHT22;47127;47.516;8.596;2023-02-17T08:04:01;10.30;92.90
61253;DHT22;47127;47.516;8.596;2023-02-17T08:06:27;10.40;92.40
61253;DHT22;47127;47.516;8.596;2023-02-17T08:08:53;10.40;92.40
61253;DHT22;47127;47.516;8.596;2023-02-17T08:11:38;10.40;92.10
61253;DHT22;47127;47.516;8.596;2023-02-17T08:14:24;10.50;91.90
61253;DHT22;47127;47.516;8.596;2023-02-17T08:16:50;10.60;91.90
61253;DHT22;47127;47.516;8.596;2023-02-17T08:19:16;10.50;91.90
61253;DHT22;47127;47.516;8.596;2023-02-17T08:21:42;10.50;92.00
61253;DHT22;47127;47.516;8.596;2023-02-17T08:24:11;10.40;92.10
61253;DHT22;47127;47.516;8.596;2023-02-17T08:26:37;10.40;92.00
61253;DHT22;47127;47.516;8.596;2023-02-17T08:29:03;10.50;92.50
61253;DHT22;47127;47.516;8.596;2023-02-17T08:31:33;10.50;92.00
61253;DHT22;47127;47.516;8.596;2023-02-17T08:34:01;10.50;92.20
61253;DHT22;47127;47.516;8.596;2023-02-17T08:36:28;10.50;92.20
61253;DHT22;47127;47.516;8.596;2023-02-17T08:38:54;10.60;92.40
61253;DHT22;47127;47.516;8.596;2023-02-17T08:41:38;10.70;92.00
61253;DHT22;47127;47.516;8.596;2023-02-17T08:44:13;10.80;91.50
61253;DHT22;47127;47.516;8.596;2023-02-17T08:46:40;10.80;91.50
61253;DHT22;47127;47.516;8.596;2023-02-17T08:49:07;10.70;91.40
61253;DHT22;47127;47.516;8.596;2023-02-17T08:51:34;10.60;91.20
61253;DHT22;47127;47.516;8.596;2023-02-17T08:54:00;10.60;91.40
61253;DHT22;47127;47.516;8.596;2023-02-17T08:56:26;10.50;92.50
61253;DHT22;47127;47.516;8.596;2023-02-17T08:58:52;10.50;92.60
61253;DHT22;47127;47.516;8.596;2023-02-17T09:01:18;10.50;92.20
61253;DHT22;47127;47.516;8.596;2023-02-17T09:03:45;10.50;93.00
61253;DHT22;47127;47.516;8.596;2023-02-17T09:06:11;10.50;92.40
61253;DHT22;47127;47.516;8.596;2023-02-17T09:08:37;10.60;92.40
61253;DHT22;47127;47.516;8.596;2023-02-17T09:11:05;10.60;92.40
61253;DHT22;47127;47.516;8.596;2023-02-17T09:13:31;10.60;92.60
61253;DHT22;47127;47.516;8.596;2023-02-17T09:15:57;10.60;92.40
61253;DHT22;47127;47.516;8.596;2023-02-17T09:18:23;10.60;92.40
61253;DHT22;47127;47.516;8.596;2023-02-17T09:20:49;10.60;92.90
61253;DHT22;47127;47.516;8.596;2023-02-17T09:23:15;10.60;92.80
61253;DHT22;47127;47.516;8.596;2023-02-17T09:25:41;10.60;92.40
61253;DHT22;47127;47.516;8.596;2023-02-17T09:28:07;10.60;92.90
61253;DHT22;47127;47.516;8.596;2023-02-17T09:30:33;10.70;92.90
61253;DHT22;47127;47.516;8.596;2023-02-17T09:32:58;10.60;92.60
61253;DHT22;47127;47.516;8.596;2023-02-17T09:35:24;10.70;92.80
61253;DHT22;47127;47.516;8.596;2023-02-17T09:37:51;10.90;92.90
61253;DHT22;47127;47.516;8.596;2023-02-17T09:40:23;10.90;92.40
61253;DHT22;47127;47.516;8.596;2023-02-17T09:42:51;10.90;92.30
61253;DHT22;47127;47.516;8.596;2023-02-17T09:45:24;11.00;92.90
61253;DHT22;47127;47.516;8.596;2023-02-17T09:47:54;10.80;92.60
61253;DHT22;47127;47.516;8.596;2023-02-17T09:50:24;10.80;93.00
61253;DHT22;47127;47.516;8.596;2023-02-17T09:53:02;10.70;92.80
61253;DHT22;47127;47.516;8.596;2023-02-17T09:55:37;10.90;93.10
61253;DHT22;47127;47.516;8.596;2023-02-17T09:58:24;10.80;93.20
61253;DHT22;47127;47.516;8.596;2023-02-17T10:00:53;10.80;93.30
61253;DHT22;47127;47.516;8.596;2023-02-17T10:06:25;10.90;93.60
61253;DHT22;47127;47.516;8.596;2023-02-17T10:09:08;10.90;93.70
61253;DHT22;47127;47.516;8.596;2023-02-17T10:11:47;11.00;93.90
61253;DHT22;47127;47.516;8.596;2023-02-17T10:14:28;11.10;94.30
61253;DHT22;47127;47.516;8.596;2023-02-17T10:17:31;11.10;94.00
61253;DHT22;47127;47.516;8.596;2023-02-17T10:20:02;11.20;94.00
61253;DHT22;47127;47.516;8.596;2023-02-17T10:22:30;11.30;93.90
61253;DHT22;47127;47.516;8.596;2023-02-17T10:24:56;11.40;93.70
61253;DHT22;47127;47.516;8.596;2023-02-17T10:38:52;11.80;93.90
61253;DHT22;47127;47.516;8.596;2023-02-17T10:41:41;11.80;93.80
61253;DHT22;47127;47.516;8.596;2023-02-17T10:44:13;11.70;94.40
61253;DHT22;47127;47.516;8.596;2023-02-17T10:46:41;11.50;94.50
61253;DHT22;47127;47.516;8.596;2023-02-17T10:49:15;11.60;94.70
61253;DHT22;47127;47.516;8.596;2023-02-17T10:51:43;11.60;95.20
61253;DHT22;47127;47.516;8.596;2023-02-17T10:54:28;11.50;95.20
61253;DHT22;47127;47.516;8.596;2023-02-17T10:56:56;11.60;95.70
61253;DHT22;47127;47.516;8.596;2023-02-17T10:59:38;11.60;95.60
61253;DHT22;47127;47.516;8.596;2023-02-17T11:02:34;11.70;96.10
61253;DHT22;47127;47.516;8.596;2023-02-17T11:05:02;11.90;95.90
61253;DHT22;47127;47.516;8.596;2023-02-17T11:07:36;12.00;95.70
61253;DHT22;47127;47.516;8.596;2023-02-17T11:10:52;12.00;95.80
61253;DHT22;47127;47.516;8.596;2023-02-17T11:13:36;12.00;96.20
61253;DHT22;47127;47.516;8.596;2023-02-17T11:16:03;12.10;95.80
61253;DHT22;47127;47.516;8.596;2023-02-17T11:18:32;12.10;95.90
61253;DHT22;47127;47.516;8.596;2023-02-17T11:21:06;12.10;95.70
61253;DHT22;47127;47.516;8.596;2023-02-17T11:23:32;12.10;95.90
61253;DHT22;47127;47.516;8.596;2023-02-17T11:26:09;12.00;96.10
61253;DHT22;47127;47.516;8.596;2023-02-17T11:28:36;12.10;95.80
61253;DHT22;47127;47.516;8.596;2023-02-17T11:31:02;12.10;95.90
61253;DHT22;47127;47.516;8.596;2023-02-17T11:33:34;12.10;95.90
61253;DHT22;47127;47.516;8.596;2023-02-17T11:36:01;12.10;95.70
61253;DHT22;47127;47.516;8.596;2023-02-17T11:38:42;12.10;96.00
61253;DHT22;47127;47.516;8.596;2023-02-17T11:41:08;12.10;96.40
61253;DHT22;47127;47.516;8.596;2023-02-17T11:43:35;12.30;97.10
61253;DHT22;47127;47.516;8.596;2023-02-17T11:46:20;12.50;96.40
61253;DHT22;47127;47.516;8.596;2023-02-17T11:51:48;12.50;96.70
61253;DHT22;47127;47.516;8.596;2023-02-17T11:59:48;12.70;97.10
61253;DHT22;47127;47.516;8.596;2023-02-17T12:04:53;12.70;96.10
61253;DHT22;47127;47.516;8.596;2023-02-17T12:07:46;12.50;96.00
61253;DHT22;47127;47.516;8.596;2023-02-17T12:13:20;12.40;96.30
61253;DHT22;47127;47.516;8.596;2023-02-17T12:26:50;12.70;96.70
61253;DHT22;47127;47.516;8.596;2023-02-17T12:35:39;12.30;97.90
61253;DHT22;47127;47.516;8.596;2023-02-17T12:38:15;12.30;98.30
61253;DHT22;47127;47.516;8.596;2023-02-17T12:41:29;12.50;98.40
61253;DHT22;47127;47.516;8.596;2023-02-17T12:43:41;12.70;98.70
61253;DHT22;47127;47.516;8.596;2023-02-17T12:46:11;12.80;98.00
61253;DHT22;47127;47.516;8.596;2023-02-17T12:48:49;12.80;97.80
61253;DHT22;47127;47.516;8.596;2023-02-17T12:51:26;12.80;97.50
61253;DHT22;47127;47.516;8.596;2023-02-17T12:58:54;12.90;97.30
61253;DHT22;47127;47.516;8.596;2023-02-17T13:01:25;13.00;97.30
61253;DHT22;47127;47.516;8.596;2023-02-17T13:03:53;12.90;96.80
61253;DHT22;47127;47.516;8.596;2023-02-17T13:06:41;13.00;97.80
61253;DHT22;47127;47.516;8.596;2023-02-17T13:09:28;13.10;97.40
61253;DHT22;47127;47.516;8.596;2023-02-17T13:12:07;13.10;97.30
61253;DHT22;47127;47.516;8.596;2023-02-17T13:14:42;13.20;97.20
61253;DHT22;47127;47.516;8.596;2023-02-17T13:17:26;13.20;96.80
61253;DHT22;47127;47.516;8.596;2023-02-17T13:20:05;13.20;97.60
61253;DHT22;47127;47.516;8.596;2023-02-17T13:22:31;13.30;97.20
61253;DHT22;47127;47.516;8.596;2023-02-17T13:24:57;13.30;97.50
61253;DHT22;47127;47.516;8.596;2023-02-17T13:30:05;13.50;97.00
61253;DHT22;47127;47.516;8.596;2023-02-17T13:32:35;13.50;97.30
61253;DHT22;47127;47.516;8.596;2023-02-17T13:37:41;13.60;97.10
61253;DHT22;47127;47.516;8.596;2023-02-17T13:42:55;13.50;97.70
61253;DHT22;47127;47.516;8.596;2023-02-17T13:47:52;13.30;98.00
61253;DHT22;47127;47.516;8.596;2023-02-17T13:52:52;13.40;98.00
61253;DHT22;47127;47.516;8.596;2023-02-17T13:55:19;13.50;98.00
61253;DHT22;47127;47.516;8.596;2023-02-17T13:57:45;13.50;98.10
61253;DHT22;47127;47.516;8.596;2023-02-17T14:00:22;13.60;98.00
61253;DHT22;47127;47.516;8.596;2023-02-17T14:02:53;13.60;97.80
61253;DHT22;47127;47.516;8.596;2023-02-17T14:08:12;13.50;98.20
61253;DHT22;47127;47.516;8.596;2023-02-17T14:10:39;13.60;98.40
61253;DHT22;47127;47.516;8.596;2023-02-17T14:13:09;13.80;98.50
61253;DHT22;47127;47.516;8.596;2023-02-17T14:15:35;13.90;98.30
61253;DHT22;47127;47.516;8.596;2023-02-17T14:18:14;13.80;98.30
61253;DHT22;47127;47.516;8.596;2023-02-17T14:20:39;13.80;98.40
61253;DHT22;47127;47.516;8.596;2023-02-17T14:23:11;13.70;98.90
61253;DHT22;47127;47.516;8.596;2023-02-17T14:25:40;13.60;99.50
61253;DHT22;47127;47.516;8.596;2023-02-17T14:28:35;13.50;99.90
61253;DHT22;47127;47.516;8.596;2023-02-17T14:31:09;13.50;99.90
61253;DHT22;47127;47.516;8.596;2023-02-17T14:33:35;13.50;99.90
61253;DHT22;47127;47.516;8.596;2023-02-17T14:36:03;13.50;99.90
61253;DHT22;47127;47.516;8.596;2023-02-17T14:38:37;13.40;99.90
61253;DHT22;47127;47.516;8.596;2023-02-17T14:41:07;13.40;99.90
61253;DHT22;47127;47.516;8.596;2023-02-17T14:43:34;13.50;99.90
61253;DHT22;47127;47.516;8.596;2023-02-17T14:46:00;13.40;99.90
61253;DHT22;47127;47.516;8.596;2023-02-17T14:48:26;13.40;99.90
61253;DHT22;47127;47.516;8.596;2023-02-17T14:50:52;13.40;99.90
61253;DHT22;47127;47.516;8.596;2023-02-17T14:53:31;13.30;99.90
61253;DHT22;47127;47.516;8.596;2023-02-17T14:58:27;13.30;99.90
61253;DHT22;47127;47.516;8.596;2023-02-17T15:00:53;13.30;99.90
61253;DHT22;47127;47.516;8.596;2023-02-17T15:03:19;13.20;99.90
61253;DHT22;47127;47.516;8.596;2023-02-17T15:05:44;13.20;99.90
61253;DHT22;47127;47.516;8.596;2023-02-17T15:08:16;13.30;99.90
61253;DHT22;47127;47.516;8.596;2023-02-17T15:10:43;13.40;99.90
61253;DHT22;47127;47.516;8.596;2023-02-17T15:13:17;13.40;99.90
61253;DHT22;47127;47.516;8.596;2023-02-17T15:15:44;13.50;99.90
61253;DHT22;47127;47.516;8.596;2023-02-17T15:18:12;13.60;99.90
61253;DHT22;47127;47.516;8.596;2023-02-17T15:20:40;13.60;99.90
61253;DHT22;47127;47.516;8.596;2023-02-17T15:23:14;13.60;99.90
61253;DHT22;47127;47.516;8.596;2023-02-17T15:25:40;13.60;99.90
61253;DHT22;47127;47.516;8.596;2023-02-17T15:28:06;13.60;99.90
61253;DHT22;47127;47.516;8.596;2023-02-17T15:30:32;13.80;99.90
61253;DHT22;47127;47.516;8.596;2023-02-17T15:32:58;14.00;99.90
61253;DHT22;47127;47.516;8.596;2023-02-17T15:35:25;14.10;99.90
61253;DHT22;47127;47.516;8.596;2023-02-17T15:37:51;14.30;99.90
61253;DHT22;47127;47.516;8.596;2023-02-17T15:40:22;14.50;99.90
61253;DHT22;47127;47.516;8.596;2023-02-17T15:42:54;14.70;99.90
61253;DHT22;47127;47.516;8.596;2023-02-17T15:45:20;14.70;99.90
61253;DHT22;47127;47.516;8.596;2023-02-17T15:47:48;14.60;99.90
61253;DHT22;47127;47.516;8.596;2023-02-17T15:50:19;14.50;99.90
61253;DHT22;47127;47.516;8.596;2023-02-17T15:52:50;14.50;99.90
61253;DHT22;47127;47.516;8.596;2023-02-17T15:55:19;14.60;99.90
61253;DHT22;47127;47.516;8.596;2023-02-17T15:57:51;14.70;99.90
61253;DHT22;47127;47.516;8.596;2023-02-17T16:00:29;14.70;99.90
61253;DHT22;47127;47.516;8.596;2023-02-17T16:02:55;14.80;99.90
61253;DHT22;47127;47.516;8.596;2023-02-17T16:05:23;15.20;99.90
61253;DHT22;47127;47.516;8.596;2023-02-17T16:07:49;15.40;99.90
61253;DHT22;47127;47.516;8.596;2023-02-17T16:10:17;15.70;99.90
61253;DHT22;47127;47.516;8.596;2023-02-17T16:12:45;15.90;99.90
61253;DHT22;47127;47.516;8.596;2023-02-17T16:15:16;15.60;99.90
61253;DHT22;47127;47.516;8.596;2023-02-17T16:17:43;15.30;99.90
61253;DHT22;47127;47.516;8.596;2023-02-17T16:20:17;15.10;99.90
61253;DHT22;47127;47.516;8.596;2023-02-17T16:22:44;14.70;99.90
61253;DHT22;47127;47.516;8.596;2023-02-17T16:25:10;14.40;99.90
61253;DHT22;47127;47.516;8.596;2023-02-17T16:27:36;14.10;99.90
61253;DHT22;47127;47.516;8.596;2023-02-17T16:30:16;13.80;99.90
61253;DHT22;47127;47.516;8.596;2023-02-17T16:32:42;13.50;99.90
61253;DHT22;47127;47.516;8.596;2023-02-17T16:35:13;13.30;99.90
61253;DHT22;47127;47.516;8.596;2023-02-17T16:37:38;13.10;99.90
61253;DHT22;47127;47.516;8.596;2023-02-17T16:40:13;12.90;99.90
61253;DHT22;47127;47.516;8.596;2023-02-17T16:42:40;12.80;99.90
61253;DHT22;47127;47.516;8.596;2023-02-17T16:45:12;12.70;99.90
61253;DHT22;47127;47.516;8.596;2023-02-17T16:47:38;12.60;99.90
61253;DHT22;47127;47.516;8.596;2023-02-17T16:50:06;12.50;99.90
61253;DHT22;47127;47.516;8.596;2023-02-17T16:52:33;12.40;99.90
61253;DHT22;47127;47.516;8.596;2023-02-17T16:54:58;12.40;99.90
61253;DHT22;47127;47.516;8.596;2023-02-17T16:57:24;12.40;99.90
61253;DHT22;47127;47.516;8.596;2023-02-17T16:59:50;12.30;99.90
61253;DHT22;47127;47.516;8.596;2023-02-17T17:02:16;12.40;99.90
61253;DHT22;47127;47.516;8.596;2023-02-17T17:04:41;12.30;99.90
61253;DHT22;47127;47.516;8.596;2023-02-17T17:07:11;12.20;99.90
61253;DHT22;47127;47.516;8.596;2023-02-17T17:09:37;12.20;99.90
61253;DHT22;47127;47.516;8.596;2023-02-17T17:12:03;12.10;99.90
61253;DHT22;47127;47.516;8.596;2023-02-17T17:14:29;12.00;99.90
61253;DHT22;47127;47.516;8.596;2023-02-17T17:16:56;11.90;99.90
61253;DHT22;47127;47.516;8.596;2023-02-17T17:19:22;11.80;99.90
61253;DHT22;47127;47.516;8.596;2023-02-17T17:21:48;11.80;99.90
61253;DHT22;47127;47.516;8.596;2023-02-17T17:24:14;11.70;99.90
61253;DHT22;47127;47.516;8.596;2023-02-17T17:26:43;11.70;99.90